Terminal Aerodrome Forecast
Issued by NWS Cleveland, OH

Home | Current Version | Previous Version | Graphics & Text | Print | Product List | Glossary On
Versions: 1 2 3 4 5 6 7 8 9 10 11 12 13 14 15 16 17
000
FTUS41 KCLE 301730
TAFCAK
TAF
KCAK 301730Z 3018/3118 21012G20KT P6SM VCTS BKN045CB
      TEMPO 3018/3021 2SM -TSRA OVC025CB
     FM302300 21011KT P6SM VCTS OVC035CB
     FM310200 21011KT P6SM VCSH BKN045
     FM310800 02014KT 5SM -SHRA BR OVC015
     FM311600 08014KT P6SM VCSH OVC025=

USA.gov is the U.S. government's official web portal to all federal, state and local government web resources and services.